Time;durP1;ratioP1;P1;durP2;ratioP2;P2;SDS_P1;SDS_P2;PMS_P1;PMS_P2;Temp;Humidity;BMP_temperature;BMP_pressure;BME280_temperature;BME280_humidity;BME280_pressure;Samples;Min_cycle;Max_cycle;Signal;HPM_P1;HPM_P2
2022/08/02 00:02:18;;;;;;;5.03;2.40;;;16.30;83.20;;;;;;5093135;28;20024;-38
2022/08/02 00:04:45;;;;;;;4.85;3.88;;;16.30;83.20;;;;;;5093594;28;20396;-38
2022/08/02 00:07:12;;;;;;;5.07;3.20;;;16.20;83.30;;;;;;5092944;28;20471;-39
2022/08/02 00:09:37;;;;;;;10.93;3.70;;;16.20;83.60;;;;;;5092867;28;20034;-39
2022/08/02 00:12:03;;;;;;;3.95;2.25;;;16.10;83.70;;;;;;5093057;28;20024;-40
2022/08/02 00:14:29;;;;;;;7.18;2.60;;;16.10;83.60;;;;;;5093761;28;20081;-45
2022/08/02 00:16:55;;;;;;;4.97;3.25;;;16.10;83.70;;;;;;5092917;28;20020;-38
2022/08/02 00:19:20;;;;;;;7.38;2.92;;;16.10;83.70;;;;;;5093176;28;20317;-38
2022/08/02 00:21:46;;;;;;;6.45;2.95;;;16.20;83.70;;;;;;5092979;28;20032;-38
2022/08/02 00:24:11;;;;;;;5.88;3.55;;;16.20;83.20;;;;;;5093143;28;20024;-40
2022/08/02 00:26:37;;;;;;;12.48;3.83;;;16.10;83.10;;;;;;5093694;28;20055;-39
2022/08/02 00:29:03;;;;;;;5.38;3.15;;;16.10;83.40;;;;;;5078204;28;20059;-38
2022/08/02 00:31:29;;;;;;;12.40;3.40;;;16.10;83.50;;;;;;5096814;28;20161;-38
2022/08/02 00:33:54;;;;;;;7.68;3.78;;;16.20;84.10;;;;;;5096610;28;20032;-37
2022/08/02 00:36:20;;;;;;;11.52;3.40;;;16.30;84.40;;;;;;5096391;28;20051;-38
2022/08/02 00:38:47;;;;;;;8.02;2.85;;;16.20;84.50;;;;;;5096210;28;20020;-38
2022/08/02 00:41:20;;;;;;;4.57;3.00;;;16.10;84.50;;;;;;5095942;28;20040;-39
2022/08/02 00:43:47;;;;;;;4.38;3.20;;;16.10;84.50;;;;;;5096502;28;20099;-38
2022/08/02 00:46:15;;;;;;;5.70;2.60;;;16.00;84.30;;;;;;5096071;28;20085;-38
2022/08/02 00:48:40;;;;;;;7.45;2.85;;;15.80;84.50;;;;;;5096327;28;20513;-38
2022/08/02 00:51:06;;;;;;;4.80;3.10;;;15.80;84.60;;;;;;5096196;28;20076;-38
2022/08/02 00:53:32;;;;;;;6.82;2.88;;;15.80;84.70;;;;;;5096656;28;20020;-40
2022/08/02 00:55:58;;;;;;;4.18;2.95;;;15.80;84.90;;;;;;5096581;28;20031;-43
2022/08/02 00:58:23;;;;;;;3.83;2.83;;;15.80;85.20;;;;;;5096355;28;20105;-40
2022/08/02 01:00:49;;;;;;;6.05;3.38;;;15.70;85.20;;;;;;5096042;28;20030;-39
2022/08/02 01:03:14;;;;;;;6.18;3.08;;;15.70;85.30;;;;;;5096279;28;20468;-39
2022/08/02 01:05:40;;;;;;;4.95;3.13;;;15.70;85.30;;;;;;5096686;28;20472;-38
2022/08/02 01:08:06;;;;;;;7.43;3.55;;;15.70;85.30;;;;;;5096346;28;20129;-38
2022/08/02 01:10:32;;;;;;;6.18;2.92;;;15.70;85.40;;;;;;5096175;28;20020;-37
2022/08/02 01:12:58;;;;;;;6.75;3.20;;;15.70;85.70;;;;;;5096412;28;20039;-39
2022/08/02 01:15:25;;;;;;;6.47;3.15;;;15.70;85.90;;;;;;5078382;28;20042;-39
2022/08/02 01:18:13;;;;;;;8.95;3.22;;;15.70;86.00;;;;;;5096196;28;20024;-44
2022/08/02 01:21:28;;;;;;;8.63;3.05;;;15.70;85.80;;;;;;5062586;28;20028;-39
2022/08/02 01:24:19;;;;;;;11.07;3.80;;;15.70;85.50;;;;;;5096105;28;20034;-39
2022/08/02 01:26:57;;;;;;;3.45;2.78;;;15.60;85.60;;;;;;5096548;28;20345;-39
2022/08/02 01:29:33;;;;;;;7.25;3.38;;;15.50;85.80;;;;;;5096345;28;20016;-39
2022/08/02 01:32:13;;;;;;;3.38;2.30;;;15.50;85.90;;;;;;5096185;28;20115;-39
2022/08/02 01:34:45;;;;;;;5.88;3.08;;;15.50;86.00;;;;;;5096286;28;20468;-40
2022/08/02 01:37:27;;;;;;;5.63;3.20;;;15.60;85.90;;;;;;5095672;28;20034;-46
2022/08/02 01:40:15;;;;;;;7.72;3.15;;;15.60;85.80;;;;;;5095398;28;20044;-39
2022/08/02 01:42:45;;;;;;;5.70;3.28;;;15.70;85.60;;;;;;5095063;28;20107;-38
2022/08/02 01:45:12;;;;;;;;;;;15.70;85.70;;;;;;5095811;28;20476;-39
2022/08/02 01:47:40;;;;;;;4.07;3.45;;;15.70;85.70;;;;;;5095140;28;19908;-38
2022/08/02 01:50:07;;;;;;;5.10;3.40;;;15.70;85.70;;;;;;5094929;28;20020;-38
2022/08/02 01:52:36;;;;;;;6.97;3.33;;;15.70;85.70;;;;;;5094916;28;20024;-38
2022/08/02 01:55:07;;;;;;;6.13;3.63;;;15.70;85.60;;;;;;5094901;28;20476;-38
2022/08/02 01:57:35;;;;;;;;;;;15.70;85.50;;;;;;5095289;28;20437;-38
2022/08/02 02:00:02;;;;;;;5.88;3.08;;;15.60;85.50;;;;;;5094698;28;19915;-38
2022/08/02 02:02:30;;;;;;;7.95;3.75;;;15.60;85.40;;;;;;5094601;28;20024;-38
2022/08/02 02:04:58;;;;;;;5.57;3.13;;;15.50;85.40;;;;;;5076358;28;20395;-38
2022/08/02 02:07:24;;;;;;;6.93;2.97;;;15.50;85.40;;;;;;5094619;28;20020;-38
2022/08/02 02:09:51;;;;;;;7.43;3.60;;;15.50;85.50;;;;;;5094513;28;20046;-38
2022/08/02 02:12:18;;;;;;;6.38;3.55;;;15.50;85.30;;;;;;5094407;28;20483;-38
2022/08/02 02:14:44;;;;;;;5.55;3.10;;;15.50;85.20;;;;;;5094304;28;20039;-38
2022/08/02 02:17:12;;;;;;;4.72;3.22;;;15.40;85.30;;;;;;5094654;28;20078;-38
2022/08/02 02:19:38;;;;;;;4.88;3.22;;;15.40;85.40;;;;;;5094570;28;20020;-38
2022/08/02 02:22:04;;;;;;;6.53;3.05;;;15.30;85.50;;;;;;5059398;28;20119;-38
2022/08/02 02:24:30;;;;;;;7.95;3.65;;;15.30;85.50;;;;;;5094205;28;20099;-39
2022/08/02 02:27:00;;;;;;;10.15;3.58;;;15.30;85.50;;;;;;5094380;28;20030;-39
2022/08/02 02:29:29;;;;;;;4.85;3.83;;;15.30;85.60;;;;;;5094143;28;20020;-39
2022/08/02 02:31:58;;;;;;;5.47;3.47;;;15.30;85.50;;;;;;5075895;28;20131;-38
2022/08/02 02:34:32;;;;;;;12.77;4.53;;;15.30;85.50;;;;;;5094222;28;20372;-39
2022/08/02 02:37:02;;;;;;;10.63;4.40;;;15.30;85.60;;;;;;5094253;28;20020;-39
2022/08/02 02:39:29;;;;;;;6.43;3.67;;;15.30;85.60;;;;;;5093647;28;20055;-38
2022/08/02 02:42:00;;;;;;;9.50;4.68;;;15.30;85.60;;;;;;5094084;28;20103;-38
2022/08/02 02:44:27;;;;;;;7.90;3.70;;;15.30;85.70;;;;;;5075928;28;20035;-39
2022/08/02 02:46:54;;;;;;;7.53;4.72;;;15.30;85.60;;;;;;5094010;28;20321;-39
2022/08/02 02:49:21;;;;;;;10.48;4.47;;;15.30;85.70;;;;;;5075108;28;20027;-39
2022/08/02 02:51:48;;;;;;;5.07;3.70;;;15.30;85.80;;;;;;5093867;28;20100;-39
2022/08/02 02:54:15;;;;;;;5.22;3.78;;;15.30;85.80;;;;;;5093676;28;20024;-39
2022/08/02 02:56:42;;;;;;;7.07;3.60;;;15.20;85.80;;;;;;5093748;28;20054;-39
2022/08/02 02:59:11;;;;;;;7.43;3.70;;;15.20;85.90;;;;;;5093517;28;20021;-40
2022/08/02 03:01:38;;;;;;;9.45;4.85;;;15.20;86.00;;;;;;5093732;28;20028;-39
2022/08/02 03:04:06;;;;;;;4.20;3.25;;;15.20;85.90;;;;;;5093789;28;20065;-38
2022/08/02 03:06:32;;;;;;;5.88;3.78;;;15.20;85.90;;;;;;5075363;28;20388;-38
2022/08/02 03:08:58;;;;;;;4.97;3.20;;;15.10;86.00;;;;;;5093687;28;20020;-38
2022/08/02 03:11:28;;;;;;;6.10;3.35;;;15.20;86.20;;;;;;5093710;28;20422;-39
2022/08/02 03:14:07;;;;;;;9.45;3.72;;;15.10;86.30;;;;;;5094037;28;20062;-38
2022/08/02 03:16:33;;;;;;;5.40;3.30;;;15.10;86.50;;;;;;5093356;28;20546;-38
2022/08/02 03:19:01;;;;;;;4.55;3.45;;;15.10;86.70;;;;;;5075436;28;20020;-38
2022/08/02 03:21:27;;;;;;;5.30;3.80;;;15.00;86.70;;;;;;5075154;28;20035;-39
2022/08/02 03:23:53;;;;;;;4.07;3.17;;;14.90;86.80;;;;;;5093173;28;20027;-39
2022/08/02 03:26:18;;;;;;;4.85;3.40;;;14.90;87.00;;;;;;5093229;28;20038;-38
2022/08/02 03:28:44;;;;;;;8.02;4.60;;;14.90;87.00;;;;;;5093439;28;20511;-38
2022/08/02 03:31:10;;;;;;;4.68;3.50;;;14.90;86.90;;;;;;5093507;28;20028;-38
2022/08/02 03:33:36;;;;;;;5.38;3.60;;;14.90;87.00;;;;;;5093363;28;20024;-38
2022/08/02 03:36:09;;;;;;;8.25;3.35;;;14.80;87.00;;;;;;5093256;28;20025;-38
2022/08/02 03:38:36;;;;;;;5.63;3.95;;;14.80;87.00;;;;;;5075345;28;20032;-38
2022/08/02 19:41:37;;;;;;;1.85;1.38;;;25.30;51.00;;;;;;5071019;28;20932;-38
2022/08/02 19:44:03;;;;;;;3.30;1.38;;;25.20;51.20;;;;;;5070917;28;20104;-39
2022/08/02 19:46:33;;;;;;;5.18;1.65;;;25.30;51.10;;;;;;5071163;28;20469;-39
2022/08/02 19:49:00;;;;;;;1.45;1.30;;;25.30;51.20;;;;;;5068984;28;20370;-38
2022/08/02 19:51:28;;;;;;;3.60;1.30;;;25.30;51.50;;;;;;5070897;28;20047;-39
2022/08/02 19:53:54;;;;;;;4.68;2.38;;;25.20;51.90;;;;;;5070458;28;20024;-37
2022/08/02 19:56:19;;;;;;;3.58;1.63;;;25.10;52.70;;;;;;5068729;28;20074;-39
2022/08/02 19:58:45;;;;;;;4.13;1.90;;;25.00;53.10;;;;;;5070619;28;20100;-39
2022/08/02 20:01:11;;;;;;;2.92;1.80;;;24.90;53.70;;;;;;5070397;28;20032;-39
2022/08/02 20:03:40;;;;;;;4.82;2.25;;;24.80;54.10;;;;;;5070033;28;20049;-39
2022/08/02 20:06:05;;;;;;;3.05;1.60;;;24.80;54.70;;;;;;5070494;28;20013;-39
2022/08/02 20:08:32;;;;;;;3.35;1.90;;;24.70;55.00;;;;;;5070672;28;20040;-39
2022/08/02 20:10:57;;;;;;;5.25;2.45;;;24.50;55.50;;;;;;5070509;28;20104;-40
2022/08/02 20:13:23;;;;;;;5.03;2.20;;;24.40;56.40;;;;;;5070469;28;20075;-39
2022/08/02 20:15:49;;;;;;;4.22;1.73;;;24.30;56.70;;;;;;5070956;28;20040;-38
2022/08/02 20:18:14;;;;;;;3.78;3.08;;;24.30;57.40;;;;;;5070154;28;20068;-40
2022/08/02 20:20:43;;;;;;;3.08;2.13;;;24.30;58.10;;;;;;5069786;28;20029;-39
2022/08/02 20:23:16;;;;;;;3.38;2.08;;;24.20;58.20;;;;;;5069646;28;20028;-39
2022/08/02 20:25:43;;;;;;;1.95;1.60;;;24.10;58.50;;;;;;5069599;28;20495;-38
2022/08/02 20:28:10;;;;;;;3.85;2.17;;;24.10;58.40;;;;;;5070156;28;20017;-38
2022/08/02 20:30:38;;;;;;;5.60;2.88;;;24.10;58.60;;;;;;5067899;28;20083;-39
2022/08/02 20:33:05;;;;;;;6.88;3.50;;;24.00;58.80;;;;;;5069463;28;20056;-39
2022/08/02 20:35:31;;;;;;;9.02;2.70;;;24.00;58.70;;;;;;5067867;28;20123;-38
2022/08/02 20:37:58;;;;;;;4.85;4.07;;;23.90;58.90;;;;;;5069347;28;20057;-38
2022/08/02 20:40:24;;;;;;;6.45;4.22;;;23.80;60.00;;;;;;5068828;28;20048;-39
2022/08/02 20:42:51;;;;;;;6.00;3.78;;;23.80;60.10;;;;;;5069225;28;20031;-39
2022/08/02 20:45:17;;;;;;;4.38;2.72;;;23.80;60.10;;;;;;5068937;28;20039;-38
2022/08/02 20:47:44;;;;;;;3.75;2.85;;;23.70;60.40;;;;;;5069077;28;20028;-39
2022/08/02 20:52:54;;;;;;;6.57;2.53;;;23.50;62.10;;;;;;5056157;28;20055;-38
2022/08/02 20:55:20;;;;;;;4.80;2.67;;;23.40;62.40;;;;;;5055752;28;20028;-38
2022/08/02 20:57:46;;;;;;;5.28;3.08;;;23.40;62.70;;;;;;5055444;28;20104;-38
2022/08/02 21:00:12;;;;;;;4.55;3.13;;;23.30;62.80;;;;;;5055627;28;20025;-38
2022/08/02 21:02:39;;;;;;;9.82;4.32;;;23.30;62.90;;;;;;5055353;28;20071;-39
2022/08/02 21:05:05;;;;;;;4.05;2.70;;;23.30;63.30;;;;;;5055623;28;20025;-38
2022/08/02 21:07:31;;;;;;;5.15;3.42;;;23.30;63.00;;;;;;5055183;28;20025;-37
2022/08/02 21:09:57;;;;;;;5.13;3.63;;;23.20;63.20;;;;;;5055453;28;20040;-38
2022/08/02 21:12:24;;;;;;;5.32;2.55;;;23.10;63.60;;;;;;5055481;28;20362;-44
2022/08/02 21:14:50;;;;;;;6.78;3.20;;;23.00;63.90;;;;;;5055043;28;20036;-39
2022/08/02 21:17:15;;;;;;;9.32;2.85;;;23.00;64.30;;;;;;5055556;28;20029;-38
2022/08/02 21:19:41;;;;;;;3.83;3.15;;;22.90;64.40;;;;;;5055144;28;20040;-38
2022/08/02 21:22:07;;;;;;;6.80;2.90;;;22.90;64.90;;;;;;5055154;28;20017;-38
2022/08/02 21:24:32;;;;;;;6.30;3.83;;;22.90;65.40;;;;;;5054048;28;20044;-39
2022/08/02 21:26:58;;;;;;;4.45;3.28;;;22.80;65.70;;;;;;5055251;28;20029;-39
2022/08/02 21:29:24;;;;;;;5.38;4.28;;;22.80;65.90;;;;;;5055092;28;20104;-38
2022/08/02 21:31:50;;;;;;;4.05;3.65;;;22.80;66.10;;;;;;5054834;28;20028;-38
2022/08/02 21:34:16;;;;;;;4.93;2.80;;;22.80;66.40;;;;;;5054809;28;20025;-38
2022/08/02 21:36:42;;;;;;;6.22;3.70;;;22.80;66.00;;;;;;5054967;28;20484;-38
2022/08/02 21:39:08;;;;;;;5.13;3.42;;;22.70;66.10;;;;;;5054859;28;20424;-38
2022/08/02 21:41:34;;;;;;;9.20;3.80;;;22.60;66.60;;;;;;5054515;28;20556;-38
2022/08/02 21:44:01;;;;;;;8.18;4.80;;;22.50;66.80;;;;;;5053245;28;20388;-41
2022/08/02 21:46:26;;;;;;;8.90;4.18;;;22.50;67.40;;;;;;5054492;28;20017;-38
2022/08/02 21:48:52;;;;;;;7.28;5.03;;;22.50;67.90;;;;;;5054697;28;20489;-38
2022/08/02 21:51:17;;;;;;;7.03;4.15;;;22.40;68.00;;;;;;5054774;28;20527;-38
2022/08/02 21:53:43;;;;;;;7.72;4.75;;;22.40;68.20;;;;;;5054477;28;20079;-39
2022/08/02 21:56:09;;;;;;;6.50;4.43;;;22.30;68.50;;;;;;5054332;28;20487;-38
2022/08/02 21:58:35;;;;;;;10.73;4.80;;;22.30;68.90;;;;;;5054797;28;20020;-38
2022/08/02 22:01:01;;;;;;;7.30;4.40;;;22.20;69.30;;;;;;5054567;28;20055;-38
2022/08/02 22:03:26;;;;;;;7.93;3.65;;;22.20;69.60;;;;;;5054044;28;20020;-38
2022/08/02 22:05:52;;;;;;;6.75;3.30;;;22.10;69.80;;;;;;5054513;28;20016;-38
2022/08/02 22:08:18;;;;;;;5.63;4.13;;;22.10;69.80;;;;;;5054351;28;20025;-38
2022/08/02 22:11:02;;;;;;;4.88;3.58;;;22.10;69.90;;;;;;5054321;28;20040;-38
2022/08/02 22:13:33;;;;;;;4.53;3.50;;;22.20;69.90;;;;;;5054502;28;20103;-40
2022/08/02 22:16:01;;;;;;;5.30;3.78;;;22.10;70.10;;;;;;5053968;28;20055;-38
2022/08/02 22:18:27;;;;;;;5.10;3.88;;;22.10;70.40;;;;;;5054168;28;20412;-38
2022/08/02 22:20:54;;;;;;;6.70;3.13;;;22.00;70.50;;;;;;5054389;28;20024;-38
2022/08/02 22:23:20;;;;;;;6.57;3.75;;;22.00;70.70;;;;;;5054166;28;20036;-39
2022/08/02 22:25:46;;;;;;;7.80;3.47;;;22.00;70.90;;;;;;5054194;28;20466;-38
2022/08/02 22:28:13;;;;;;;5.10;3.78;;;22.00;71.00;;;;;;5053838;28;20162;-39
2022/08/02 22:30:40;;;;;;;4.60;3.80;;;21.90;71.10;;;;;;5053975;28;20029;-40
2022/08/02 22:35:50;;;;;;;12.00;3.75;;;21.80;71.30;;;;;;5054492;28;20055;-39
2022/08/02 22:38:18;;;;;;;3.50;3.10;;;21.80;71.30;;;;;;5053708;28;20075;-39
2022/08/02 22:40:45;;;;;;;4.68;3.15;;;21.80;71.30;;;;;;5053286;28;20059;-39
2022/08/02 22:43:11;;;;;;;4.60;3.60;;;21.80;71.40;;;;;;5053590;28;20067;-39
2022/08/02 22:45:38;;;;;;;3.40;2.92;;;21.70;71.50;;;;;;5053490;28;20358;-41
2022/08/02 22:48:04;;;;;;;5.28;3.22;;;21.70;71.80;;;;;;5053849;28;20021;-39
2022/08/02 22:50:30;;;;;;;4.28;3.20;;;21.70;71.50;;;;;;5053761;28;20499;-38
2022/08/02 22:52:56;;;;;;;3.90;3.00;;;21.60;71.40;;;;;;5052451;28;20025;-39
2022/08/02 22:55:21;;;;;;;5.45;3.33;;;21.60;71.70;;;;;;5053566;28;20423;-38
2022/08/02 22:57:48;;;;;;;3.75;3.05;;;21.50;71.80;;;;;;5053252;28;20025;-38
2022/08/02 23:00:14;;;;;;;3.92;3.13;;;21.30;72.10;;;;;;5052386;28;20033;-40
2022/08/02 23:02:39;;;;;;;4.15;2.80;;;21.30;72.40;;;;;;5053293;28;20036;-39
2022/08/02 23:05:05;;;;;;;3.53;2.60;;;21.30;72.50;;;;;;5053425;28;20029;-38
2022/08/02 23:07:31;;;;;;;2.95;2.60;;;21.30;72.60;;;;;;5053084;28;20051;-38
2022/08/02 23:09:57;;;;;;;5.57;2.97;;;21.30;72.70;;;;;;5053031;28;20500;-39
2022/08/02 23:12:23;;;;;;;3.28;2.50;;;21.30;72.70;;;;;;5053075;28;20028;-39
2022/08/02 23:14:51;;;;;;;4.88;2.78;;;21.30;72.80;;;;;;5052719;28;20029;-39
2022/08/02 23:20:04;;;;;;;4.15;2.83;;;21.30;72.90;;;;;;5052965;28;20397;-38
2022/08/02 23:22:29;;;;;;;5.03;3.67;;;21.30;72.90;;;;;;5051527;28;20029;-40
2022/08/02 23:24:55;;;;;;;6.07;3.53;;;21.30;73.00;;;;;;5053031;28;20426;-38
2022/08/02 23:27:21;;;;;;;8.85;3.90;;;21.30;73.50;;;;;;5052673;28;20021;-38
2022/08/02 23:29:47;;;;;;;4.10;2.45;;;21.30;73.70;;;;;;5053412;28;20036;-39
2022/08/02 23:32:13;;;;;;;5.65;3.47;;;21.20;74.10;;;;;;5051487;28;20393;-39
2022/08/02 23:34:39;;;;;;;4.88;3.58;;;21.10;74.50;;;;;;5051431;28;20021;-38
2022/08/02 23:37:05;;;;;;;3.80;2.78;;;21.00;74.80;;;;;;5052653;28;20044;-38
2022/08/02 23:39:32;;;;;;;3.97;2.90;;;21.00;74.90;;;;;;5052485;28;20148;-39
2022/08/02 23:41:57;;;;;;;3.70;2.67;;;21.00;74.90;;;;;;5052757;28;20032;-39
2022/08/02 23:44:24;;;;;;;6.28;3.60;;;21.00;74.90;;;;;;5052621;28;20098;-38
2022/08/02 23:46:51;;;;;;;6.60;3.38;;;20.90;74.80;;;;;;5052649;28;20115;-39
2022/08/02 23:49:16;;;;;;;4.72;3.30;;;20.90;74.80;;;;;;5052790;28;20029;-40
2022/08/02 23:51:42;;;;;;;9.65;3.35;;;20.90;74.90;;;;;;5052835;28;20454;-39
2022/08/02 23:54:09;;;;;;;5.10;3.00;;;20.90;74.90;;;;;;5052490;28;20083;-39
2022/08/02 23:56:35;;;;;;;3.55;2.72;;;20.80;75.40;;;;;;5052853;28;20358;-39
2022/08/02 23:59:01;;;;;;;8.15;3.63;;;20.80;75.10;;;;;;5051369;28;20101;-39
